Time;durP1;ratioP1;P1;durP2;ratioP2;P2;SDS_P1;SDS_P2;PMS_P1;PMS_P2;Temp;Humidity;BMP_temperature;BMP_pressure;BME280_temperature;BME280_humidity;BME280_pressure;Samples;Min_cycle;Max_cycle;Signal;HPM_P1;HPM_P2
2023/03/16 00:01:05;;;;;;;4.17;3.77;;;2.30;87.70;;;;;;917648;152;27331;-76
2023/03/16 00:03:32;;;;;;;5.57;3.97;;;2.30;87.90;;;;;;911884;154;27408;-76
2023/03/16 00:05:58;;;;;;;4.93;4.30;;;2.20;88.00;;;;;;904535;153;27428;-76
2023/03/16 00:08:25;;;;;;;5.30;4.47;;;2.20;88.30;;;;;;917371;151;27488;-76
2023/03/16 00:10:52;;;;;;;6.83;4.60;;;2.20;88.40;;;;;;910871;153;27334;-76
2023/03/16 00:13:18;;;;;;;5.10;4.60;;;2.20;88.00;;;;;;902637;155;27488;-76
2023/03/16 00:15:57;;;;;;;5.53;5.00;;;2.20;88.50;;;;;;917287;150;27400;-76
2023/03/16 00:18:26;;;;;;;4.63;3.80;;;2.20;88.60;;;;;;917443;152;27310;-75
2023/03/16 00:21:00;;;;;;;4.63;4.17;;;2.10;88.60;;;;;;901270;155;27930;-76
2023/03/16 00:23:28;;;;;;;5.70;4.43;;;2.10;88.50;;;;;;905157;154;27405;-76
2023/03/16 00:25:57;;;;;;;6.27;4.70;;;2.10;88.60;;;;;;918234;152;27443;-76
2023/03/16 00:28:24;;;;;;;4.60;4.20;;;2.00;88.70;;;;;;912088;154;27309;-76
2023/03/16 00:30:51;;;;;;;5.00;4.50;;;2.00;88.90;;;;;;903159;154;27400;-75
2023/03/16 00:33:17;;;;;;;5.20;4.10;;;1.90;89.00;;;;;;902106;154;27418;-75
2023/03/16 00:35:49;;;;;;;6.50;3.90;;;1.90;89.10;;;;;;939583;148;27373;-75
2023/03/16 00:38:13;;;;;;;5.33;3.60;;;1.90;89.30;;;;;;924188;151;27387;-75
2023/03/16 00:40:39;;;;;;;5.03;3.90;;;1.90;89.50;;;;;;924839;151;27473;-75
2023/03/16 00:43:06;;;;;;;4.37;3.90;;;1.80;89.60;;;;;;902991;154;27436;-75
2023/03/16 00:45:33;;;;;;;5.37;4.50;;;1.80;89.60;;;;;;903562;154;27360;-75
2023/03/16 00:48:00;;;;;;;4.57;4.17;;;1.80;89.70;;;;;;902060;155;27347;-75
2023/03/16 00:50:26;;;;;;;5.87;4.67;;;1.70;89.90;;;;;;900234;155;27456;-75
2023/03/16 00:52:52;;;;;;;5.20;4.70;;;1.70;90.10;;;;;;920026;152;27446;-75
2023/03/16 00:55:19;;;;;;;7.07;5.03;;;1.70;90.30;;;;;;902861;154;27920;-75
2023/03/16 00:57:46;;;;;;;5.47;4.03;;;1.70;90.40;;;;;;922860;151;27372;-75
2023/03/16 01:00:15;;;;;;;4.60;4.17;;;1.70;90.40;;;;;;938619;148;27386;-75
2023/03/16 01:02:39;;;;;;;5.13;4.40;;;1.70;90.60;;;;;;922457;150;27400;-75
2023/03/16 01:05:05;;;;;;;4.10;3.80;;;1.70;90.60;;;;;;902953;154;27426;-75
2023/03/16 01:07:34;;;;;;;4.23;3.83;;;1.70;90.60;;;;;;903346;155;27348;-75
2023/03/16 01:09:59;;;;;;;4.13;3.83;;;1.70;90.70;;;;;;902337;155;27500;-75
2023/03/16 01:12:26;;;;;;;5.00;3.93;;;1.70;90.70;;;;;;920172;152;27426;-75
2023/03/16 01:14:52;;;;;;;5.77;4.37;;;1.70;91.10;;;;;;925938;151;27485;-75
2023/03/16 01:17:18;;;;;;;7.70;4.67;;;1.70;90.80;;;;;;922938;151;27390;-75
2023/03/16 01:19:45;;;;;;;7.70;4.70;;;1.70;90.80;;;;;;938140;148;27274;-75
2023/03/16 01:22:11;;;;;;;5.10;4.57;;;1.70;90.80;;;;;;901513;155;27343;-75
2023/03/16 01:24:38;;;;;;;8.67;3.93;;;1.70;90.90;;;;;;916985;152;27364;-75
2023/03/16 01:27:05;;;;;;;5.00;4.33;;;1.60;90.90;;;;;;903821;155;27500;-75
2023/03/16 01:29:31;;;;;;;7.77;4.90;;;1.60;91.10;;;;;;919401;152;27410;-75
2023/03/16 01:31:58;;;;;;;4.33;3.73;;;1.60;91.10;;;;;;918149;151;27357;-75
2023/03/16 01:34:24;;;;;;;4.57;3.90;;;1.60;91.20;;;;;;904829;154;27422;-75
2023/03/16 01:36:51;;;;;;;5.63;4.70;;;1.60;91.30;;;;;;902665;155;27405;-75
2023/03/16 01:39:18;;;;;;;5.53;4.40;;;1.60;91.30;;;;;;904273;155;27327;-75
2023/03/16 01:41:44;;;;;;;4.10;3.63;;;1.60;91.40;;;;;;921458;152;27369;-75
2023/03/16 01:44:17;;;;;;;5.10;3.67;;;1.60;91.30;;;;;;918558;152;27473;-75
2023/03/16 01:46:43;;;;;;;5.33;4.20;;;1.60;91.40;;;;;;906075;154;27429;-75
2023/03/16 01:49:19;;;;;;;5.83;4.27;;;1.60;91.40;;;;;;918071;152;27385;-75
2023/03/16 01:51:57;;;;;;;5.10;4.57;;;1.60;91.40;;;;;;901581;155;27440;-75
2023/03/16 01:54:36;;;;;;;4.53;3.77;;;1.60;91.30;;;;;;919061;152;27356;-75
2023/03/16 01:57:03;;;;;;;6.03;4.33;;;1.60;91.40;;;;;;915047;152;27423;-75
2023/03/16 01:59:31;;;;;;;4.67;4.10;;;1.50;91.40;;;;;;901451;155;27525;-75
2023/03/16 02:01:58;;;;;;;4.67;4.23;;;1.50;91.40;;;;;;902505;155;27418;-75
2023/03/16 02:04:43;;;;;;;5.17;4.67;;;1.50;91.50;;;;;;922663;151;27291;-75
2023/03/16 02:07:10;;;;;;;6.00;4.13;;;1.50;91.60;;;;;;937601;148;27383;-74
2023/03/16 02:09:36;;;;;;;5.23;3.57;;;1.50;91.60;;;;;;939007;148;27409;-73
2023/03/16 02:12:03;;;;;;;4.97;4.27;;;1.50;91.60;;;;;;924974;151;27410;-73
2023/03/16 02:14:30;;;;;;;5.97;4.17;;;1.40;91.70;;;;;;924565;151;27364;-73
2023/03/16 02:16:56;;;;;;;4.63;3.67;;;1.40;91.60;;;;;;939747;148;27454;-73
2023/03/16 02:19:25;;;;;;;5.80;4.33;;;1.50;91.80;;;;;;944978;147;27803;-75
2023/03/16 02:21:55;;;;;;;4.67;4.20;;;1.50;91.80;;;;;;911676;154;27377;-75
2023/03/16 02:24:21;;;;;;;4.53;4.13;;;1.50;91.90;;;;;;903941;155;27443;-75
2023/03/16 02:26:54;;;;;;;4.47;4.07;;;1.50;91.90;;;;;;921302;152;27485;-75
2023/03/16 02:29:28;;;;;;;4.73;4.33;;;1.50;92.00;;;;;;905151;154;27489;-74
2023/03/16 02:31:53;;;;;;;4.83;4.30;;;1.50;92.00;;;;;;903030;155;27347;-74
2023/03/16 02:34:20;;;;;;;6.93;5.20;;;1.50;92.00;;;;;;911889;154;27377;-74
2023/03/16 02:36:46;;;;;;;5.97;4.90;;;1.40;92.00;;;;;;903939;155;27392;-74
2023/03/16 02:39:13;;;;;;;7.43;4.90;;;1.40;92.00;;;;;;920141;151;27395;-74
2023/03/16 02:41:40;;;;;;;5.30;4.37;;;1.40;92.10;;;;;;925508;151;27466;-74
2023/03/16 02:44:09;;;;;;;4.87;4.37;;;1.40;91.90;;;;;;924586;151;27462;-74
2023/03/16 02:46:36;;;;;;;5.70;5.10;;;1.40;92.00;;;;;;918238;152;27517;-74
2023/03/16 02:49:05;;;;;;;6.73;4.70;;;1.40;92.20;;;;;;919874;152;27415;-74
2023/03/16 02:51:31;;;;;;;5.10;4.60;;;1.40;92.10;;;;;;923691;151;27429;-74
2023/03/16 02:53:58;;;;;;;5.73;4.57;;;1.40;92.30;;;;;;924856;151;27425;-74
2023/03/16 02:56:24;;;;;;;6.97;4.73;;;1.40;92.30;;;;;;925052;151;27409;-74
2023/03/16 02:58:51;;;;;;;6.77;4.67;;;1.40;92.30;;;;;;926697;151;27375;-74
2023/03/16 03:01:18;;;;;;;6.27;4.80;;;1.30;92.30;;;;;;925863;151;27281;-73
2023/03/16 03:03:44;;;;;;;4.57;4.07;;;1.30;92.30;;;;;;928681;151;27420;-74
2023/03/16 03:06:11;;;;;;;6.53;4.63;;;1.30;92.30;;;;;;926336;151;27355;-74
2023/03/16 03:08:37;;;;;;;5.40;4.43;;;1.30;92.40;;;;;;926264;151;27414;-82
2023/03/16 03:11:04;;;;;;;5.20;4.30;;;1.30;92.60;;;;;;925800;151;27433;-82
2023/03/16 03:13:31;;;;;;;6.17;4.70;;;1.30;92.60;;;;;;926062;151;27408;-82
2023/03/16 03:15:57;;;;;;;5.73;4.73;;;1.30;92.70;;;;;;924010;151;27440;-82
2023/03/16 03:18:24;;;;;;;6.00;5.07;;;1.30;92.40;;;;;;929082;151;27399;-82
2023/03/16 03:20:50;;;;;;;5.30;4.03;;;1.30;92.80;;;;;;924572;151;27488;-78
2023/03/16 03:23:17;;;;;;;6.07;4.40;;;1.30;92.90;;;;;;927554;151;27418;-78
2023/03/16 03:25:44;;;;;;;6.20;4.40;;;1.30;92.90;;;;;;925614;151;27452;-78
2023/03/16 03:28:10;;;;;;;6.30;4.70;;;1.30;93.00;;;;;;926679;151;27404;-78
2023/03/16 03:30:37;;;;;;;5.73;4.33;;;1.30;93.10;;;;;;927661;151;27385;-78
2023/03/16 03:33:03;;;;;;;5.00;4.50;;;1.40;93.10;;;;;;925913;151;27374;-78
2023/03/16 03:35:30;;;;;;;6.33;4.63;;;1.30;93.00;;;;;;925285;151;27358;-78
2023/03/16 03:37:56;;;;;;;4.33;3.93;;;1.40;93.10;;;;;;925455;151;27390;-78
2023/03/16 03:40:23;;;;;;;5.07;4.30;;;1.40;93.10;;;;;;929187;151;27315;-78
2023/03/16 03:42:50;;;;;;;5.10;4.63;;;1.40;92.80;;;;;;925011;151;27415;-78
2023/03/16 03:45:17;;;;;;;4.77;4.23;;;1.30;93.20;;;;;;927623;151;27439;-78
2023/03/16 03:47:43;;;;;;;5.67;4.37;;;1.30;93.20;;;;;;926468;151;27380;-78
2023/03/16 03:50:10;;;;;;;5.17;4.67;;;1.30;93.30;;;;;;927460;151;27353;-78
2023/03/16 03:52:36;;;;;;;5.20;4.20;;;1.30;93.30;;;;;;925344;151;27427;-78
2023/03/16 03:55:03;;;;;;;5.10;4.60;;;1.40;93.40;;;;;;926752;151;27457;-79
2023/03/16 03:57:29;;;;;;;5.33;4.83;;;1.30;93.40;;;;;;924112;151;27356;-78
2023/03/16 03:59:56;;;;;;;6.33;4.83;;;1.40;93.40;;;;;;925369;151;27335;-78
2023/03/16 04:02:22;;;;;;;4.83;4.33;;;1.40;93.50;;;;;;928032;151;27361;-78
2023/03/16 04:04:49;;;;;;;6.13;4.97;;;1.30;93.60;;;;;;926919;151;27448;-78
2023/03/16 04:07:16;;;;;;;5.27;4.37;;;1.40;93.60;;;;;;925676;151;27396;-78
2023/03/16 04:09:42;;;;;;;5.00;4.50;;;1.40;93.60;;;;;;926060;151;27387;-79
2023/03/16 04:12:09;;;;;;;6.67;5.37;;;1.40;93.70;;;;;;926468;151;27375;-78
2023/03/16 04:14:35;;;;;;;5.30;4.47;;;1.40;93.80;;;;;;923872;151;27381;-78
2023/03/16 04:17:03;;;;;;;6.07;5.47;;;1.40;93.90;;;;;;926105;151;27360;-78
2023/03/16 04:19:29;;;;;;;5.90;5.27;;;1.40;93.80;;;;;;924690;151;27338;-79
2023/03/16 04:21:55;;;;;;;6.57;5.33;;;1.40;93.90;;;;;;926176;151;27378;-79
2023/03/16 04:24:22;;;;;;;5.57;5.03;;;1.40;93.90;;;;;;925341;151;27402;-78
2023/03/16 04:26:48;;;;;;;6.43;5.20;;;1.40;94.30;;;;;;925782;151;27386;-78
2023/03/16 04:29:18;;;;;;;7.00;5.40;;;1.40;93.90;;;;;;927673;151;27391;-78
2023/03/16 04:31:41;;;;;;;5.43;4.87;;;1.40;93.90;;;;;;924876;151;27431;-78
2023/03/16 04:34:08;;;;;;;6.30;5.07;;;1.40;93.90;;;;;;923375;151;27395;-78
2023/03/16 04:36:35;;;;;;;5.53;4.83;;;1.40;93.90;;;;;;926763;151;27820;-78
2023/03/16 04:39:01;;;;;;;7.07;5.03;;;1.50;94.00;;;;;;926333;151;27358;-79
2023/03/16 04:41:28;;;;;;;6.87;5.70;;;1.40;93.80;;;;;;927738;151;27467;-79
2023/03/16 04:43:56;;;;;;;6.20;4.97;;;1.40;93.80;;;;;;926692;151;27574;-78
2023/03/16 04:46:21;;;;;;;6.10;5.13;;;1.40;93.80;;;;;;925390;151;27741;-78
2023/03/16 04:48:48;;;;;;;6.20;5.00;;;1.40;93.80;;;;;;926749;151;27413;-78
2023/03/16 04:51:14;;;;;;;5.50;4.97;;;1.40;93.90;;;;;;927523;151;27299;-78
2023/03/16 04:53:41;;;;;;;5.17;4.30;;;1.40;94.00;;;;;;926811;151;27318;-78
2023/03/16 04:56:07;;;;;;;5.77;5.17;;;1.40;94.00;;;;;;924577;151;27374;-78
2023/03/16 04:58:34;;;;;;;6.20;5.17;;;1.40;94.10;;;;;;925201;151;27418;-79
2023/03/16 05:01:01;;;;;;;5.93;5.30;;;1.40;94.10;;;;;;927230;151;27477;-78
2023/03/16 05:03:27;;;;;;;5.93;5.10;;;1.40;94.20;;;;;;926126;151;27311;-79
2023/03/16 05:05:54;;;;;;;7.00;5.53;;;1.40;94.00;;;;;;926278;151;27368;-78
2023/03/16 05:08:20;;;;;;;5.57;5.07;;;1.40;94.00;;;;;;925089;151;27459;-75
2023/03/16 05:10:47;;;;;;;6.63;4.93;;;1.40;94.20;;;;;;924600;151;27394;-75
2023/03/16 05:13:13;;;;;;;6.07;5.47;;;1.40;94.20;;;;;;927356;151;27307;-75
2023/03/16 05:15:40;;;;;;;6.40;5.40;;;1.40;94.20;;;;;;926409;151;27310;-75
2023/03/16 05:18:07;;;;;;;5.63;5.07;;;1.40;94.20;;;;;;924657;151;27403;-75
2023/03/16 05:20:33;;;;;;;6.80;5.83;;;1.30;94.30;;;;;;927051;151;27415;-75
2023/03/16 05:23:00;;;;;;;7.07;6.20;;;1.30;94.30;;;;;;927009;151;27357;-75
2023/03/16 05:25:26;;;;;;;6.30;5.53;;;1.30;94.40;;;;;;926700;151;27461;-75
2023/03/16 05:27:53;;;;;;;6.10;5.50;;;1.30;94.50;;;;;;925805;151;27360;-75
2023/03/16 05:30:20;;;;;;;7.20;5.83;;;1.30;94.50;;;;;;926381;151;27400;-75
2023/03/16 05:32:46;;;;;;;7.50;6.37;;;1.40;94.60;;;;;;927032;151;27886;-75
2023/03/16 05:35:13;;;;;;;10.17;6.23;;;1.30;94.70;;;;;;926341;151;27528;-75
2023/03/16 05:37:39;;;;;;;5.80;5.10;;;1.30;94.80;;;;;;925673;151;27390;-75
2023/03/16 05:40:14;;;;;;;6.53;5.47;;;1.40;94.80;;;;;;926989;151;27419;-76
2023/03/16 05:42:35;;;;;;;7.37;5.80;;;1.40;94.90;;;;;;926600;151;27358;-75
2023/03/16 05:45:02;;;;;;;6.27;5.67;;;1.40;95.00;;;;;;926219;151;27383;-75
2023/03/16 05:47:28;;;;;;;6.97;5.70;;;1.40;95.00;;;;;;927009;151;27387;-75
2023/03/16 05:49:55;;;;;;;6.83;6.00;;;1.40;95.10;;;;;;927547;151;27498;-75
2023/03/16 05:52:24;;;;;;;7.73;5.90;;;1.50;95.30;;;;;;926199;151;27500;-75
2023/03/16 05:54:48;;;;;;;6.43;5.40;;;1.50;95.40;;;;;;925846;151;27371;-75
2023/03/16 05:57:15;;;;;;;7.17;5.43;;;1.50;95.50;;;;;;926018;151;27386;-75
2023/03/16 05:59:42;;;;;;;7.70;6.37;;;1.60;96.00;;;;;;926723;151;27391;-75
2023/03/16 06:02:09;;;;;;;6.90;6.17;;;1.70;97.20;;;;;;927365;151;27393;-75
2023/03/16 06:04:34;;;;;;;7.20;6.20;;;1.90;98.40;;;;;;925775;151;27342;-75
2023/03/16 06:07:01;;;;;;;7.53;6.27;;;2.20;99.50;;;;;;926437;151;27532;-75
2023/03/16 06:09:28;;;;;;;7.57;6.37;;;2.40;99.60;;;;;;927341;151;27513;-75
2023/03/16 06:11:54;;;;;;;6.90;5.83;;;2.70;99.10;;;;;;925957;151;27394;-75
2023/03/16 06:14:22;;;;;;;6.63;5.80;;;3.00;98.80;;;;;;927700;151;27323;-75
2023/03/16 06:16:47;;;;;;;6.80;5.83;;;3.10;97.90;;;;;;925876;151;27407;-75
2023/03/16 06:19:14;;;;;;;7.90;6.23;;;3.40;97.70;;;;;;926352;151;27367;-75
2023/03/16 06:21:40;;;;;;;6.30;5.70;;;3.60;98.20;;;;;;927287;151;27398;-75
2023/03/16 06:24:08;;;;;;;6.23;5.63;;;3.80;98.30;;;;;;925442;151;27302;-75
2023/03/16 06:26:34;;;;;;;6.90;6.03;;;4.10;98.40;;;;;;925301;151;27904;-75
2023/03/16 06:29:00;;;;;;;6.83;6.13;;;4.40;98.80;;;;;;925255;151;27386;-75
2023/03/16 06:31:27;;;;;;;7.00;6.30;;;4.70;99.20;;;;;;926108;151;27327;-75
2023/03/16 06:33:53;;;;;;;6.00;5.40;;;5.10;99.90;;;;;;924700;151;27491;-75
2023/03/16 06:36:20;;;;;;;6.60;5.53;;;5.60;99.80;;;;;;923412;151;27447;-75
2023/03/16 06:38:47;;;;;;;6.53;5.83;;;6.00;99.70;;;;;;923434;151;27391;-76
2023/03/16 06:41:13;;;;;;;6.07;5.37;;;6.60;99.70;;;;;;923005;151;27461;-75
2023/03/16 06:43:41;;;;;;;6.53;5.60;;;7.10;99.60;;;;;;925135;151;27422;-75
2023/03/16 06:46:06;;;;;;;5.87;5.03;;;7.70;99.40;;;;;;924295;151;27399;-75
2023/03/16 06:48:33;;;;;;;6.20;5.60;;;8.20;99.10;;;;;;923264;151;27457;-75
2023/03/16 06:51:00;;;;;;;5.67;5.17;;;8.80;98.00;;;;;;926114;151;27432;-75
2023/03/16 06:53:26;;;;;;;5.53;5.03;;;9.30;96.90;;;;;;926047;151;27394;-75
2023/03/16 06:55:53;;;;;;;5.60;5.00;;;9.90;95.30;;;;;;925834;151;27382;-75
2023/03/16 06:58:20;;;;;;;6.47;4.93;;;10.30;94.20;;;;;;940646;148;27278;-75
2023/03/16 07:00:46;;;;;;;6.00;5.43;;;10.80;93.20;;;;;;907011;154;27380;-75
2023/03/16 07:03:12;;;;;;;5.23;4.77;;;11.30;92.50;;;;;;903332;155;27374;-75
2023/03/16 07:05:39;;;;;;;6.43;5.13;;;11.80;91.80;;;;;;904113;154;27453;-75
2023/03/16 07:08:09;;;;;;;5.27;4.77;;;12.30;91.20;;;;;;903450;155;27386;-79
2023/03/16 07:10:33;;;;;;;5.53;5.03;;;12.80;90.30;;;;;;903663;155;27749;-82
2023/03/16 07:12:59;;;;;;;5.00;4.60;;;13.40;89.00;;;;;;905072;154;27419;-81
2023/03/16 07:15:25;;;;;;;4.55;4.15;;;13.90;87.80;;;;;;917093;152;27418;-81
2023/03/16 07:17:52;;;;;;;4.90;4.50;;;14.40;86.00;;;;;;923944;151;27440;-81
2023/03/16 07:20:18;;;;;;;4.67;4.28;;;14.90;84.10;;;;;;922046;151;27368;-81
2023/03/16 07:22:45;;;;;;;4.45;4.10;;;15.30;81.80;;;;;;922458;151;27453;-82
2023/03/16 07:25:12;;;;;;;4.33;3.92;;;15.80;80.00;;;;;;923785;151;27375;-81
2023/03/16 07:27:40;;;;;;;5.33;4.87;;;16.20;78.40;;;;;;921583;151;27775;-82
2023/03/16 07:30:05;;;;;;;4.80;4.40;;;16.60;77.20;;;;;;923397;151;27364;-82
2023/03/16 07:32:31;;;;;;;4.72;4.25;;;16.90;76.10;;;;;;922442;151;27347;-82
2023/03/16 07:34:58;;;;;;;6.28;4.12;;;17.30;75.20;;;;;;924942;151;27303;-83
2023/03/16 07:37:25;;;;;;;5.05;4.12;;;17.60;74.40;;;;;;923521;151;27395;-83
2023/03/16 07:39:51;;;;;;;4.40;4.00;;;18.00;73.30;;;;;;922319;151;27435;-83
2023/03/16 07:42:18;;;;;;;4.10;3.80;;;18.30;72.00;;;;;;921760;151;27340;-83
2023/03/16 07:44:44;;;;;;;4.17;3.87;;;18.60;71.00;;;;;;924553;151;27316;-83
2023/03/16 07:47:14;;;;;;;4.72;4.22;;;18.90;69.80;;;;;;923036;151;27411;-83
2023/03/16 07:49:41;;;;;;;4.35;3.95;;;19.20;69.00;;;;;;922973;151;27382;-83
2023/03/16 07:52:07;;;;;;;4.15;3.80;;;19.40;68.20;;;;;;923296;151;27386;-83
2023/03/16 07:54:34;;;;;;;4.37;3.98;;;19.70;67.10;;;;;;922339;151;27339;-84
2023/03/16 07:57:00;;;;;;;3.95;3.62;;;20.00;66.40;;;;;;924891;151;27383;-84
2023/03/16 07:59:27;;;;;;;4.17;3.83;;;20.20;65.70;;;;;;922313;151;27481;-84
2023/03/16 08:01:53;;;;;;;3.83;3.52;;;20.40;65.00;;;;;;924771;151;27355;-83
2023/03/16 08:04:21;;;;;;;4.10;3.80;;;20.60;63.90;;;;;;923223;151;27393;-83
2023/03/16 08:06:47;;;;;;;4.22;3.60;;;20.70;62.60;;;;;;923663;151;27672;-83
2023/03/16 08:09:14;;;;;;;3.72;3.40;;;20.70;61.90;;;;;;921409;151;27536;-83
2023/03/16 08:11:40;;;;;;;4.20;3.80;;;20.80;60.90;;;;;;923063;151;27386;-83
2023/03/16 08:14:06;;;;;;;4.65;4.12;;;20.80;60.40;;;;;;923538;151;27341;-83
2023/03/16 08:16:33;;;;;;;4.25;3.85;;;20.70;59.70;;;;;;922464;151;27356;-83
2023/03/16 08:19:00;;;;;;;4.03;3.72;;;20.50;58.90;;;;;;924312;151;27497;-84
2023/03/16 08:21:27;;;;;;;3.95;3.65;;;20.20;58.40;;;;;;921996;151;27419;-83
2023/03/16 08:23:53;;;;;;;4.37;4.08;;;20.10;58.60;;;;;;924451;151;27368;-84
2023/03/16 08:26:19;;;;;;;4.47;4.08;;;20.00;59.30;;;;;;924357;151;27385;-83
2023/03/16 08:28:46;;;;;;;4.22;3.83;;;20.00;59.40;;;;;;923278;151;27406;-83
2023/03/16 08:31:12;;;;;;;4.33;4.03;;;20.10;59.60;;;;;;925719;151;27482;-83
2023/03/16 08:33:39;;;;;;;4.20;3.80;;;20.20;59.90;;;;;;924631;151;27693;-83
2023/03/16 08:36:06;;;;;;;4.70;4.15;;;20.40;59.80;;;;;;918959;152;27370;-84
2023/03/16 08:38:32;;;;;;;3.98;3.67;;;20.50;59.30;;;;;;905291;153;27405;-84
2023/03/16 08:40:59;;;;;;;4.70;4.30;;;20.70;59.10;;;;;;922962;151;27394;-83
2023/03/16 08:43:28;;;;;;;4.20;3.90;;;20.90;58.80;;;;;;937332;148;27330;-83
2023/03/16 08:45:55;;;;;;;3.83;3.52;;;21.00;58.30;;;;;;906025;154;27518;-83
2023/03/16 08:48:21;;;;;;;4.92;3.87;;;21.20;58.00;;;;;;902979;153;27345;-83
2023/03/16 08:50:48;;;;;;;4.05;3.75;;;21.30;57.80;;;;;;918443;150;27482;-83
2023/03/16 08:53:14;;;;;;;4.45;4.15;;;21.50;57.60;;;;;;903869;154;27466;-83
2023/03/16 08:55:41;;;;;;;4.58;4.20;;;21.60;57.30;;;;;;920430;151;27305;-83
2023/03/16 08:58:08;;;;;;;4.25;3.95;;;21.70;57.00;;;;;;922271;151;27485;-83
2023/03/16 09:00:35;;;;;;;4.28;3.87;;;21.80;56.60;;;;;;905333;153;27583;-83
2023/03/16 09:03:01;;;;;;;4.72;4.33;;;21.80;56.00;;;;;;921982;151;27485;-84
2023/03/16 09:05:27;;;;;;;3.75;3.45;;;21.90;55.60;;;;;;939640;148;27467;-83
2023/03/16 09:07:54;;;;;;;3.95;3.58;;;22.00;55.80;;;;;;925058;150;27309;-84
2023/03/16 09:10:21;;;;;;;4.05;3.75;;;22.00;55.40;;;;;;923684;151;27332;-84
2023/03/16 09:12:48;;;;;;;3.85;3.55;;;22.10;55.20;;;;;;940741;148;27468;-84
2023/03/16 09:15:14;;;;;;;3.95;3.65;;;22.10;55.00;;;;;;944872;147;27355;-83
2023/03/16 09:17:44;;;;;;;3.80;3.50;;;22.20;54.80;;;;;;922356;151;27288;-83
2023/03/16 09:20:10;;;;;;;4.10;3.80;;;22.20;54.10;;;;;;923112;151;27456;-84
2023/03/16 09:22:39;;;;;;;3.70;3.50;;;22.20;53.10;;;;;;939678;148;27441;-84
2023/03/16 09:25:05;;;;;;;3.77;3.47;;;22.10;52.70;;;;;;926491;150;27388;-76
2023/03/16 09:27:32;;;;;;;4.15;3.85;;;22.00;52.60;;;;;;904180;154;27375;-76
2023/03/16 09:30:00;;;;;;;3.37;3.17;;;21.80;52.70;;;;;;908195;153;27323;-76
2023/03/16 09:32:26;;;;;;;3.47;3.17;;;21.70;52.80;;;;;;906706;153;27424;-76
2023/03/16 09:34:52;;;;;;;3.95;3.65;;;21.60;52.60;;;;;;921712;151;27457;-76
2023/03/16 09:37:18;;;;;;;3.85;3.55;;;21.50;52.80;;;;;;938739;148;27255;-76
2023/03/16 09:39:46;;;;;;;3.70;3.40;;;21.40;53.30;;;;;;924653;151;27487;-76
2023/03/16 09:42:18;;;;;;;4.40;4.10;;;21.30;53.50;;;;;;904561;154;27393;-76
2023/03/16 09:45:02;;;;;;;4.10;3.80;;;21.30;53.10;;;;;;918516;152;27377;-76
2023/03/16 09:47:29;;;;;;;2.90;2.70;;;21.30;52.90;;;;;;904982;153;27382;-75
2023/03/16 09:49:55;;;;;;;3.50;3.22;;;21.20;52.60;;;;;;918792;150;27294;-75
2023/03/16 09:52:26;;;;;;;3.60;3.30;;;21.00;52.00;;;;;;902541;154;27537;-75
2023/03/16 09:54:57;;;;;;;3.47;3.17;;;20.80;51.70;;;;;;903388;154;27406;-75
2023/03/16 09:57:29;;;;;;;3.27;2.90;;;20.50;51.60;;;;;;902259;155;27461;-75
2023/03/16 09:59:56;;;;;;;3.40;3.20;;;20.10;52.00;;;;;;924435;151;27400;-75
2023/03/16 10:02:35;;;;;;;4.65;3.70;;;19.80;52.20;;;;;;923868;151;28258;-75
2023/03/16 10:05:05;;;;;;;3.55;3.25;;;19.40;52.40;;;;;;917827;153;27366;-75
2023/03/16 10:07:33;;;;;;;3.87;3.58;;;19.10;52.30;;;;;;906650;153;27406;-74
2023/03/16 10:10:06;;;;;;;3.52;3.22;;;18.70;52.10;;;;;;926394;151;27446;-75
2023/03/16 10:12:32;;;;;;;3.98;3.60;;;18.40;52.50;;;;;;929290;150;27500;-75
2023/03/16 10:15:11;;;;;;;3.90;3.60;;;18.00;52.60;;;;;;910158;153;27349;-74
2023/03/16 10:17:44;;;;;;;3.80;3.50;;;17.70;52.90;;;;;;925242;151;27455;-74
2023/03/16 10:20:16;;;;;;;3.62;3.33;;;17.40;53.20;;;;;;926704;151;27357;-74
2023/03/16 10:22:43;;;;;;;3.83;3.52;;;17.10;53.60;;;;;;927814;150;27425;-74
2023/03/16 10:25:31;;;;;;;3.95;3.65;;;16.90;54.40;;;;;;911257;153;27502;-74
2023/03/16 10:27:57;;;;;;;3.98;3.67;;;16.70;53.70;;;;;;912327;153;27392;-74
2023/03/16 10:30:27;;;;;;;4.28;3.95;;;16.50;53.90;;;;;;925587;151;27407;-74
2023/03/16 10:32:53;;;;;;;3.52;3.22;;;16.30;53.40;;;;;;926711;151;27496;-74
2023/03/16 10:35:29;;;;;;;4.10;3.80;;;16.10;53.40;;;;;;918845;153;27405;-74
2023/03/16 10:37:56;;;;;;;3.92;3.62;;;15.80;53.60;;;;;;907689;153;27488;-74
2023/03/16 10:40:22;;;;;;;3.93;3.63;;;15.50;53.70;;;;;;925672;151;27368;-76
2023/03/16 10:42:49;;;;;;;3.92;3.62;;;15.20;53.70;;;;;;908823;153;27518;-76
2023/03/16 10:45:27;;;;;;;4.00;3.60;;;14.90;54.10;;;;;;924724;151;27547;-77
2023/03/16 10:47:54;;;;;;;3.60;3.30;;;14.70;54.50;;;;;;909275;153;27434;-77
2023/03/16 10:50:23;;;;;;;4.27;3.80;;;14.40;55.00;;;;;;926343;151;27322;-76
2023/03/16 10:52:50;;;;;;;4.20;3.90;;;14.30;55.50;;;;;;909647;153;27407;-76
2023/03/16 10:55:22;;;;;;;3.70;3.40;;;14.20;56.00;;;;;;910679;153;27871;-76
2023/03/16 10:57:54;;;;;;;4.50;4.13;;;14.20;57.10;;;;;;906703;154;27337;-77
2023/03/16 11:00:37;;;;;;;4.60;4.20;;;14.20;56.60;;;;;;903130;153;27462;-76
2023/03/16 11:03:03;;;;;;;4.03;3.72;;;14.20;56.60;;;;;;919585;152;27387;-74
2023/03/16 11:05:29;;;;;;;4.12;3.83;;;14.20;56.90;;;;;;919703;152;27378;-74
2023/03/16 11:07:59;;;;;;;4.07;3.77;;;14.20;56.80;;;;;;907351;154;27429;-74
2023/03/16 11:10:32;;;;;;;3.90;3.60;;;14.20;56.80;;;;;;922925;151;27481;-74
2023/03/16 11:13:01;;;;;;;4.20;3.87;;;14.20;56.80;;;;;;938818;148;27461;-74
2023/03/16 11:15:27;;;;;;;4.80;4.40;;;14.20;56.80;;;;;;939013;148;27389;-74
2023/03/16 11:17:54;;;;;;;4.43;4.03;;;14.20;56.80;;;;;;925128;151;27372;-73
2023/03/16 11:20:24;;;;;;;4.67;4.27;;;14.20;56.60;;;;;;918862;151;27341;-74
2023/03/16 11:22:50;;;;;;;4.10;3.80;;;14.10;56.50;;;;;;904693;154;27370;-74
2023/03/16 11:25:29;;;;;;;5.37;3.67;;;14.10;56.50;;;;;;918601;152;27412;-75
2023/03/16 11:28:02;;;;;;;4.00;3.70;;;14.00;56.70;;;;;;911788;154;27463;-76
2023/03/16 11:30:34;;;;;;;4.20;3.90;;;13.90;56.70;;;;;;919963;152;27450;-75
2023/03/16 11:33:00;;;;;;;5.30;4.25;;;13.80;56.70;;;;;;902887;155;27387;-75
2023/03/16 11:35:30;;;;;;;4.60;3.80;;;13.70;56.90;;;;;;904748;153;27409;-75
2023/03/16 11:38:15;;;;;;;4.57;4.17;;;13.60;56.40;;;;;;917920;152;27506;-75
2023/03/16 11:40:57;;;;;;;6.07;4.37;;;13.60;57.10;;;;;;917354;152;27471;-76
2023/03/16 11:43:51;;;;;;;4.90;4.50;;;13.50;57.00;;;;;;919213;152;27301;-76
2023/03/16 11:46:24;;;;;;;4.50;4.10;;;13.30;57.00;;;;;;920005;152;27339;-75
2023/03/16 11:49:02;;;;;;;4.27;3.97;;;13.30;57.20;;;;;;919805;152;27324;-75
2023/03/16 11:51:35;;;;;;;5.00;4.50;;;13.20;57.30;;;;;;904301;154;27453;-75
2023/03/16 11:54:25;;;;;;;5.17;3.97;;;13.10;57.60;;;;;;903496;153;27481;-75
2023/03/16 11:56:55;;;;;;;5.43;4.93;;;13.00;57.80;;;;;;901414;155;27801;-76
2023/03/16 11:59:30;;;;;;;7.17;5.57;;;13.00;58.10;;;;;;903695;154;27433;-78
2023/03/16 12:02:09;;;;;;;4.40;4.03;;;13.00;58.40;;;;;;924586;151;27411;-75
2023/03/16 12:04:54;;;;;;;4.10;3.80;;;13.10;58.60;;;;;;917487;151;27348;-76
2023/03/16 12:07:32;;;;;;;4.17;3.77;;;13.10;58.50;;;;;;931768;150;27353;-76
2023/03/16 12:10:01;;;;;;;4.90;4.40;;;13.10;58.60;;;;;;910123;153;27484;-76
2023/03/16 12:12:46;;;;;;;4.77;4.20;;;13.20;58.60;;;;;;929516;150;27456;-75
2023/03/16 12:15:28;;;;;;;4.00;3.70;;;13.20;58.60;;;;;;910084;153;27439;-76
2023/03/16 12:17:54;;;;;;;4.37;3.97;;;13.30;58.70;;;;;;924574;151;27305;-76
2023/03/16 12:20:28;;;;;;;4.33;3.93;;;13.20;58.50;;;;;;918156;153;27368;-75
2023/03/16 12:23:06;;;;;;;4.37;3.97;;;13.20;58.30;;;;;;908872;153;27393;-75
2023/03/16 12:25:32;;;;;;;4.80;4.30;;;13.20;58.20;;;;;;925526;151;27418;-78
2023/03/16 12:27:59;;;;;;;4.60;4.20;;;13.20;58.20;;;;;;909198;153;27330;-77
2023/03/16 12:30:35;;;;;;;4.25;3.95;;;13.10;58.20;;;;;;909868;153;27458;-77
2023/03/16 12:33:01;;;;;;;6.30;4.30;;;13.10;58.50;;;;;;910941;153;27475;-76
2023/03/16 12:35:33;;;;;;;4.30;3.90;;;13.10;58.70;;;;;;911662;153;27501;-75
2023/03/16 12:38:06;;;;;;;4.40;4.00;;;13.20;59.00;;;;;;911931;153;27471;-76
2023/03/16 12:40:57;;;;;;;4.67;3.80;;;13.20;59.10;;;;;;911564;153;27332;-75
2023/03/16 12:43:24;;;;;;;3.85;3.55;;;13.30;59.20;;;;;;898448;153;27475;-76
2023/03/16 12:45:59;;;;;;;8.78;7.17;;;13.40;59.10;;;;;;907697;153;27368;-75
2023/03/16 12:48:28;;;;;;;5.03;4.10;;;13.40;58.90;;;;;;909261;153;27488;-76
2023/03/16 12:50:57;;;;;;;4.67;4.27;;;13.50;59.00;;;;;;925338;151;27423;-75
2023/03/16 12:53:27;;;;;;;4.17;3.77;;;13.50;59.00;;;;;;929731;150;27402;-75
2023/03/16 12:55:55;;;;;;;4.45;4.05;;;13.60;58.20;;;;;;924988;151;27843;-75
2023/03/16 12:58:20;;;;;;;5.80;3.95;;;13.60;58.80;;;;;;925919;151;27361;-75